Time;durP1;ratioP1;P1;durP2;ratioP2;P2;SDS_P1;SDS_P2;PMS_P1;PMS_P2;Temp;Humidity;BMP_temperature;BMP_pressure;BME280_temperature;BME280_humidity;BME280_pressure;Samples;Min_cycle;Max_cycle;Signal;HPM_P1;HPM_P2
2021/10/08 00:00:40;;;;;;;10.30;8.35;;;15.60;71.60;;;;;;5063172;28;20036;-67
2021/10/08 00:03:06;;;;;;;9.98;8.77;;;15.60;71.70;;;;;;5071184;28;20521;-67
2021/10/08 00:05:32;;;;;;;10.88;8.60;;;15.60;71.60;;;;;;5071483;28;20033;-67
2021/10/08 00:07:59;;;;;;;9.77;7.78;;;15.60;71.50;;;;;;5062189;28;20012;-68
2021/10/08 00:10:25;;;;;;;13.13;7.88;;;15.50;71.50;;;;;;5054926;28;20029;-68
2021/10/08 00:12:51;;;;;;;13.20;8.52;;;15.60;71.60;;;;;;5051306;28;20032;-67
2021/10/08 00:15:16;;;;;;;11.35;8.20;;;15.50;71.40;;;;;;5051169;28;20486;-67
2021/10/08 00:17:42;;;;;;;10.57;8.55;;;15.50;71.40;;;;;;5053727;28;20109;-67
2021/10/08 00:20:09;;;;;;;10.02;8.52;;;15.50;71.40;;;;;;5072007;28;20115;-68
2021/10/08 00:22:34;;;;;;;8.88;7.65;;;15.50;71.30;;;;;;5091591;28;20028;-68
2021/10/08 00:25:00;;;;;;;10.23;7.63;;;15.50;71.30;;;;;;5060248;28;20025;-68
2021/10/08 00:27:26;;;;;;;10.48;8.77;;;15.50;71.50;;;;;;5051697;28;20025;-67
2021/10/08 00:29:52;;;;;;;9.95;7.93;;;15.50;71.40;;;;;;5050519;28;20541;-67
2021/10/08 00:32:18;;;;;;;12.38;8.90;;;15.50;71.20;;;;;;5052869;28;20066;-67
2021/10/08 00:34:44;;;;;;;8.35;7.35;;;15.50;71.10;;;;;;5071965;28;20027;-68
2021/10/08 00:37:09;;;;;;;10.32;7.82;;;15.50;71.10;;;;;;5062192;28;20033;-69
2021/10/08 00:39:35;;;;;;;14.95;8.77;;;15.40;71.10;;;;;;5051750;28;20052;-68
2021/10/08 00:42:04;;;;;;;15.55;8.48;;;15.40;71.10;;;;;;5051652;28;20544;-68
2021/10/08 00:44:30;;;;;;;12.27;7.68;;;15.40;71.00;;;;;;5051693;28;20079;-68
2021/10/08 00:46:56;;;;;;;11.48;7.55;;;15.40;71.90;;;;;;5057369;28;20021;-68
2021/10/08 00:49:22;;;;;;;8.10;6.80;;;15.40;71.30;;;;;;5056722;28;20044;-68
2021/10/08 00:51:47;;;;;;;9.57;7.20;;;15.40;71.40;;;;;;5051643;28;20025;-68
2021/10/08 00:54:13;;;;;;;7.90;6.78;;;15.40;71.50;;;;;;5051929;28;20059;-68
2021/10/08 00:56:40;;;;;;;9.80;7.07;;;15.40;71.60;;;;;;5050198;28;20033;-68
2021/10/08 00:59:06;;;;;;;11.13;8.35;;;15.40;71.70;;;;;;5051705;28;20036;-68
2021/10/08 01:01:32;;;;;;;10.70;7.93;;;15.40;71.70;;;;;;5051522;28;20037;-68
2021/10/08 01:03:57;;;;;;;11.93;8.18;;;15.40;71.50;;;;;;5051426;28;20561;-68
2021/10/08 01:06:23;;;;;;;7.05;6.32;;;15.40;71.40;;;;;;5051112;28;20096;-68
2021/10/08 01:08:49;;;;;;;8.82;6.97;;;15.40;71.50;;;;;;5050971;28;20053;-68
2021/10/08 01:11:19;;;;;;;10.95;8.88;;;15.40;71.60;;;;;;5053596;28;20029;-68
2021/10/08 01:13:45;;;;;;;10.48;8.57;;;15.40;71.50;;;;;;5054894;28;20024;-68
2021/10/08 01:16:11;;;;;;;10.15;7.75;;;15.40;71.40;;;;;;5054769;28;20021;-67
2021/10/08 01:18:37;;;;;;;15.60;8.77;;;15.40;71.40;;;;;;5054582;28;20039;-68
2021/10/08 01:21:03;;;;;;;10.27;8.07;;;15.40;71.50;;;;;;5054719;28;20474;-68
2021/10/08 01:23:29;;;;;;;9.85;8.07;;;15.40;71.60;;;;;;5054456;28;20086;-69
2021/10/08 01:25:54;;;;;;;19.30;10.98;;;15.40;71.70;;;;;;5054642;28;20056;-68
2021/10/08 01:28:21;;;;;;;15.45;9.73;;;15.40;71.50;;;;;;5054618;28;20032;-68
2021/10/08 01:30:48;;;;;;;14.40;9.50;;;15.40;71.30;;;;;;5057583;28;20033;-69
2021/10/08 01:33:15;;;;;;;11.13;9.15;;;15.40;71.30;;;;;;5058218;28;20051;-69
2021/10/08 01:35:41;;;;;;;12.40;8.63;;;15.40;71.40;;;;;;5068342;28;20024;-67
2021/10/08 01:38:07;;;;;;;10.85;8.73;;;15.50;71.60;;;;;;5058105;28;20037;-67
2021/10/08 01:40:33;;;;;;;13.25;9.23;;;15.50;71.80;;;;;;5054434;28;20033;-68
2021/10/08 01:42:59;;;;;;;13.65;9.05;;;15.50;71.80;;;;;;5065313;28;20098;-68
2021/10/08 01:45:24;;;;;;;12.48;9.13;;;15.50;71.70;;;;;;5074429;28;20597;-68
2021/10/08 01:47:50;;;;;;;15.00;9.50;;;15.50;71.70;;;;;;5063085;28;20059;-67
2021/10/08 01:50:16;;;;;;;13.80;8.73;;;15.50;71.70;;;;;;5054494;28;20040;-67
2021/10/08 01:52:42;;;;;;;13.55;9.27;;;15.50;71.90;;;;;;5062805;28;20035;-68
2021/10/08 01:55:08;;;;;;;13.73;10.52;;;15.50;71.80;;;;;;5074377;28;20029;-68
2021/10/08 01:57:33;;;;;;;17.55;9.68;;;15.50;71.70;;;;;;5054454;28;20028;-68
2021/10/08 01:59:59;;;;;;;11.80;9.80;;;15.50;71.70;;;;;;5054195;28;20144;-68
2021/10/08 02:02:25;;;;;;;11.50;9.40;;;15.50;71.60;;;;;;5055086;28;20045;-68
2021/10/08 02:04:51;;;;;;;14.60;10.85;;;15.50;71.60;;;;;;5056980;28;20020;-68
2021/10/08 02:07:16;;;;;;;13.80;10.23;;;15.60;71.60;;;;;;5056135;28;20053;-68
2021/10/08 02:09:43;;;;;;;11.77;9.52;;;15.60;71.60;;;;;;5054076;28;20056;-68
2021/10/08 02:12:10;;;;;;;13.20;9.48;;;15.60;71.70;;;;;;5054025;28;20033;-68
2021/10/08 02:14:36;;;;;;;18.30;10.70;;;15.60;71.80;;;;;;5054075;28;20021;-68
2021/10/08 02:17:02;;;;;;;12.15;9.57;;;15.60;71.90;;;;;;5053683;28;20100;-68
2021/10/08 02:19:28;;;;;;;16.83;10.25;;;15.60;72.00;;;;;;5053957;28;20021;-68
2021/10/08 02:21:54;;;;;;;14.80;10.30;;;15.60;72.00;;;;;;5053445;28;20075;-68
2021/10/08 02:24:19;;;;;;;16.55;10.18;;;15.70;72.10;;;;;;5053715;28;20068;-68
2021/10/08 02:26:45;;;;;;;13.50;11.00;;;15.70;72.00;;;;;;5053699;28;20029;-68
2021/10/08 02:29:11;;;;;;;13.57;10.38;;;15.70;71.80;;;;;;5053733;28;20032;-68
2021/10/08 02:31:37;;;;;;;12.02;9.77;;;15.70;71.80;;;;;;5053515;28;20474;-68
2021/10/08 02:34:04;;;;;;;9.98;8.80;;;15.70;71.90;;;;;;5053412;28;20051;-68
2021/10/08 02:36:29;;;;;;;13.52;9.43;;;15.70;71.90;;;;;;5053676;28;20033;-68
2021/10/08 02:38:55;;;;;;;15.35;9.73;;;15.70;71.90;;;;;;5053996;28;20024;-68
2021/10/08 02:41:22;;;;;;;12.63;9.57;;;15.70;71.90;;;;;;5053413;28;20378;-68
2021/10/08 02:43:48;;;;;;;13.70;10.13;;;15.70;72.00;;;;;;5068757;28;20025;-68
2021/10/08 02:46:14;;;;;;;16.25;12.02;;;15.70;71.80;;;;;;5073116;28;20027;-68
2021/10/08 02:48:40;;;;;;;17.17;11.18;;;15.70;71.80;;;;;;5054970;28;20021;-68
2021/10/08 02:51:06;;;;;;;17.42;12.18;;;15.70;71.80;;;;;;5073289;28;20065;-68
2021/10/08 02:53:32;;;;;;;16.85;10.63;;;15.70;71.80;;;;;;5073127;28;20025;-68
2021/10/08 02:55:58;;;;;;;18.45;12.57;;;15.80;71.90;;;;;;5057317;28;20028;-68
2021/10/08 02:58:24;;;;;;;17.45;12.68;;;15.80;71.70;;;;;;5053227;28;20041;-68
2021/10/08 03:00:50;;;;;;;20.33;12.10;;;15.80;71.50;;;;;;5053105;28;20033;-68
2021/10/08 03:03:16;;;;;;;21.33;11.45;;;15.70;71.50;;;;;;5053137;28;20442;-68
2021/10/08 03:05:42;;;;;;;18.08;12.35;;;15.70;71.40;;;;;;5053123;28;20040;-68
2021/10/08 03:08:08;;;;;;;18.67;12.43;;;15.70;71.40;;;;;;5060212;28;20036;-68
2021/10/08 03:10:34;;;;;;;15.18;10.63;;;15.70;71.10;;;;;;5052947;28;20025;-68
2021/10/08 03:13:00;;;;;;;18.55;10.50;;;15.70;71.20;;;;;;5052791;28;20394;-68
2021/10/08 03:15:27;;;;;;;19.30;9.57;;;15.70;71.10;;;;;;5052750;28;20040;-68
2021/10/08 03:17:53;;;;;;;12.77;8.45;;;15.60;71.10;;;;;;5054484;28;20041;-68
2021/10/08 03:20:19;;;;;;;11.57;7.93;;;15.60;71.20;;;;;;5071846;28;20494;-68
2021/10/08 03:22:45;;;;;;;11.02;8.60;;;15.60;71.20;;;;;;5062441;28;20037;-68
2021/10/08 03:25:12;;;;;;;10.10;7.53;;;15.60;71.20;;;;;;5050131;28;20112;-68
2021/10/08 03:27:39;;;;;;;12.02;7.95;;;15.60;71.30;;;;;;5058433;28;20024;-68
2021/10/08 03:30:08;;;;;;;14.73;8.80;;;15.60;71.50;;;;;;5072160;28;20386;-68
2021/10/08 03:32:34;;;;;;;9.27;7.05;;;15.60;71.50;;;;;;5052100;28;20106;-68
2021/10/08 03:34:59;;;;;;;13.38;7.32;;;15.70;71.70;;;;;;5052163;28;20037;-68
2021/10/08 03:37:40;;;;;;;12.07;7.85;;;15.60;71.40;;;;;;5052329;28;20033;-68
2021/10/08 03:40:08;;;;;;;9.93;7.90;;;15.60;71.40;;;;;;5052280;28;20490;-68
2021/10/08 03:42:34;;;;;;;10.32;8.00;;;15.60;71.30;;;;;;5052199;28;20036;-68
2021/10/08 03:45:08;;;;;;;12.30;8.30;;;15.60;71.50;;;;;;5051030;28;20021;-68
2021/10/08 03:47:52;;;;;;;13.23;9.88;;;15.60;71.60;;;;;;5052198;28;20094;-68
2021/10/08 03:50:19;;;;;;;11.55;8.77;;;15.60;71.60;;;;;;5050923;28;20037;-68
2021/10/08 03:52:44;;;;;;;12.18;8.93;;;15.70;71.60;;;;;;5050682;28;20040;-68
2021/10/08 03:55:10;;;;;;;13.52;8.82;;;15.70;71.60;;;;;;5051909;28;20036;-68
2021/10/08 03:57:36;;;;;;;11.15;7.28;;;15.70;71.60;;;;;;5052026;28;20032;-68
2021/10/08 04:00:03;;;;;;;11.82;8.43;;;15.70;71.60;;;;;;5051967;28;20068;-68
2021/10/08 04:02:29;;;;;;;10.43;7.50;;;15.70;71.70;;;;;;5052537;28;20041;-68
2021/10/08 04:04:55;;;;;;;11.00;8.55;;;15.70;71.70;;;;;;5053089;28;20028;-68
2021/10/08 04:07:22;;;;;;;12.60;8.45;;;15.70;71.70;;;;;;5072101;28;20067;-68
2021/10/08 04:09:47;;;;;;;11.85;8.30;;;15.70;71.70;;;;;;5071869;28;20025;-68
2021/10/08 04:12:13;;;;;;;13.60;9.38;;;15.70;71.70;;;;;;5067415;28;20502;-68
2021/10/08 04:14:39;;;;;;;20.23;10.75;;;15.70;71.40;;;;;;5051863;28;20128;-68
2021/10/08 04:17:05;;;;;;;15.52;10.70;;;15.70;71.50;;;;;;5052167;28;20104;-68
2021/10/08 04:19:31;;;;;;;20.90;11.50;;;15.70;71.60;;;;;;5051661;28;20028;-68
2021/10/08 04:21:56;;;;;;;19.40;11.50;;;15.70;71.50;;;;;;5051599;28;20021;-68
2021/10/08 04:24:22;;;;;;;16.77;11.38;;;15.70;71.50;;;;;;5051262;28;20120;-68
2021/10/08 04:26:48;;;;;;;13.02;8.70;;;15.70;71.60;;;;;;5055317;28;20049;-68
2021/10/08 04:29:14;;;;;;;15.63;10.68;;;15.70;71.70;;;;;;5051604;28;20100;-68
2021/10/08 04:31:40;;;;;;;15.30;9.90;;;15.70;71.40;;;;;;5050369;28;20021;-68
2021/10/08 04:34:05;;;;;;;16.65;9.70;;;15.80;71.60;;;;;;5050340;28;20040;-68
2021/10/08 04:36:31;;;;;;;14.52;10.20;;;15.70;71.40;;;;;;5051495;28;20079;-68
2021/10/08 04:38:57;;;;;;;21.88;11.27;;;15.70;71.40;;;;;;5051103;28;20025;-68
2021/10/08 04:41:23;;;;;;;17.90;11.48;;;15.70;71.10;;;;;;5051458;28;20033;-68
2021/10/08 04:43:48;;;;;;;19.85;11.75;;;15.70;71.20;;;;;;5050308;28;20478;-68
2021/10/08 04:46:14;;;;;;;18.67;11.13;;;15.70;71.20;;;;;;5054282;28;20482;-68
2021/10/08 04:48:40;;;;;;;18.08;11.15;;;15.70;71.20;;;;;;5055573;28;20143;-68
2021/10/08 04:51:06;;;;;;;16.13;10.32;;;15.70;71.10;;;;;;5053673;28;20719;-68
2021/10/08 04:53:32;;;;;;;17.88;11.77;;;15.70;71.30;;;;;;5055127;28;20034;-68
2021/10/08 04:55:57;;;;;;;23.88;13.00;;;15.70;71.40;;;;;;5055269;28;20410;-69
2021/10/08 04:58:23;;;;;;;19.25;11.95;;;15.70;71.30;;;;;;5055159;28;20394;-68
2021/10/08 05:00:49;;;;;;;18.42;11.15;;;15.70;71.40;;;;;;5055124;28;20048;-68
2021/10/08 05:03:17;;;;;;;18.63;12.18;;;15.70;71.50;;;;;;5060741;28;20506;-68
2021/10/08 05:05:50;;;;;;;18.50;12.48;;;15.80;71.60;;;;;;5053528;28;20021;-69
2021/10/08 05:08:16;;;;;;;14.35;10.48;;;15.80;71.60;;;;;;5054820;28;20017;-69
2021/10/08 05:10:43;;;;;;;21.17;12.40;;;15.80;71.60;;;;;;5053508;28;20031;-69
2021/10/08 05:13:08;;;;;;;18.73;11.00;;;15.80;71.60;;;;;;5053767;28;20041;-69
2021/10/08 05:15:34;;;;;;;15.93;11.20;;;15.80;71.70;;;;;;5053841;28;20051;-68
2021/10/08 05:18:00;;;;;;;21.27;13.25;;;15.80;71.70;;;;;;5054439;28;20427;-69
2021/10/08 05:20:26;;;;;;;24.85;14.27;;;15.80;71.70;;;;;;5054065;28;20445;-69
2021/10/08 05:22:52;;;;;;;25.92;14.10;;;15.80;71.60;;;;;;5054336;28;20421;-69
2021/10/08 05:25:18;;;;;;;21.23;12.95;;;15.80;71.60;;;;;;5060587;28;20032;-69
2021/10/08 05:27:44;;;;;;;21.02;11.60;;;15.80;71.50;;;;;;5069905;28;20025;-69
2021/10/08 05:30:11;;;;;;;24.08;13.93;;;15.80;71.60;;;;;;5053411;28;20025;-69
2021/10/08 05:32:37;;;;;;;22.10;13.07;;;15.80;71.60;;;;;;5054636;28;20025;-69
2021/10/08 05:35:03;;;;;;;24.92;13.88;;;15.90;71.90;;;;;;5054261;28;20025;-69
2021/10/08 05:37:29;;;;;;;31.92;17.17;;;15.90;72.00;;;;;;5053760;28;20060;-69
2021/10/08 05:39:55;;;;;;;35.13;18.05;;;15.90;71.80;;;;;;5054463;28;20056;-69
2021/10/08 05:42:21;;;;;;;35.00;19.02;;;15.90;71.70;;;;;;5054491;28;20389;-69
2021/10/08 05:44:46;;;;;;;35.88;19.17;;;15.90;71.40;;;;;;5054523;28;20029;-70
2021/10/08 05:47:12;;;;;;;34.65;18.13;;;15.90;71.30;;;;;;5054393;28;20025;-69
2021/10/08 05:49:39;;;;;;;31.17;17.27;;;15.90;71.40;;;;;;5053795;28;20094;-69
2021/10/08 05:52:05;;;;;;;35.95;18.40;;;15.90;71.50;;;;;;5053807;28;20025;-69
2021/10/08 05:54:31;;;;;;;45.45;20.75;;;15.90;71.40;;;;;;5053906;28;20390;-69
2021/10/08 05:56:57;;;;;;;44.92;20.73;;;15.90;71.20;;;;;;5061593;28;20028;-69
2021/10/08 05:59:23;;;;;;;48.63;22.48;;;16.00;71.00;;;;;;5072069;28;20024;-69
2021/10/08 06:01:48;;;;;;;52.58;24.65;;;15.90;71.00;;;;;;5073819;28;20397;-69
2021/10/08 06:04:14;;;;;;;45.47;23.02;;;16.00;70.80;;;;;;5054367;28;20182;-69
2021/10/08 06:06:40;;;;;;;48.20;21.83;;;16.00;71.00;;;;;;5053737;28;20386;-69
2021/10/08 06:09:06;;;;;;;41.00;21.00;;;16.00;71.20;;;;;;5056228;28;20019;-69
2021/10/08 06:11:32;;;;;;;40.80;21.17;;;16.00;70.90;;;;;;5058846;28;20374;-69
2021/10/08 06:13:58;;;;;;;46.65;22.50;;;16.00;70.50;;;;;;5053282;28;20410;-69
2021/10/08 06:16:24;;;;;;;42.58;20.85;;;16.00;70.40;;;;;;5053473;28;20021;-69
2021/10/08 06:18:50;;;;;;;38.83;19.98;;;16.00;70.30;;;;;;5053261;28;20024;-69
2021/10/08 06:21:15;;;;;;;39.15;20.60;;;16.00;70.50;;;;;;5052838;28;20478;-69
2021/10/08 06:23:41;;;;;;;36.90;19.63;;;16.00;70.40;;;;;;5053585;28;20067;-68
2021/10/08 06:26:07;;;;;;;37.05;19.80;;;16.00;70.30;;;;;;5053358;28;20055;-69
2021/10/08 06:28:33;;;;;;;42.20;20.75;;;16.00;70.50;;;;;;5053441;28;20100;-69
2021/10/08 06:30:59;;;;;;;45.58;21.55;;;16.00;70.40;;;;;;5053071;28;20363;-69
2021/10/08 06:33:25;;;;;;;49.28;23.85;;;16.10;71.20;;;;;;5056609;28;20051;-68
2021/10/08 06:35:51;;;;;;;51.30;25.58;;;16.10;70.40;;;;;;5059598;28;20024;-69
2021/10/08 06:38:18;;;;;;;56.55;27.45;;;16.10;70.50;;;;;;5073144;28;20059;-68
2021/10/08 06:40:43;;;;;;;60.95;28.83;;;16.10;70.50;;;;;;5069250;28;20033;-68
2021/10/08 06:43:10;;;;;;;54.13;25.27;;;16.10;70.40;;;;;;5056887;28;20548;-68
2021/10/08 06:45:36;;;;;;;50.60;24.95;;;16.10;70.30;;;;;;5052711;28;20095;-68
2021/10/08 06:48:03;;;;;;;49.45;24.30;;;16.10;70.40;;;;;;5068455;28;20077;-68
2021/10/08 06:50:28;;;;;;;54.85;24.52;;;16.10;70.70;;;;;;5070642;28;20024;-68
2021/10/08 06:52:55;;;;;;;48.42;22.92;;;16.10;70.80;;;;;;5052327;28;20040;-68
2021/10/08 06:55:20;;;;;;;43.28;22.25;;;16.10;70.90;;;;;;5069638;28;20162;-68
2021/10/08 06:57:46;;;;;;;45.60;22.83;;;16.10;70.90;;;;;;5070613;28;20100;-68
2021/10/08 07:00:12;;;;;;;54.22;27.10;;;16.10;70.90;;;;;;5061582;28;20597;-68
2021/10/08 07:02:49;;;;;;;61.63;29.70;;;16.10;70.60;;;;;;5051925;28;20098;-68
2021/10/08 07:05:16;;;;;;;50.00;25.33;;;16.10;70.20;;;;;;5055150;28;20067;-68
2021/10/08 07:07:42;;;;;;;47.65;25.17;;;16.10;70.60;;;;;;5065332;28;20039;-68
2021/10/08 07:10:08;;;;;;;49.05;24.83;;;16.20;70.80;;;;;;5073396;28;20458;-68
2021/10/08 07:12:34;;;;;;;40.30;21.75;;;16.20;70.60;;;;;;5067834;28;20032;-68
2021/10/08 07:15:01;;;;;;;37.42;19.25;;;16.20;70.60;;;;;;5053592;28;20367;-68
2021/10/08 07:17:28;;;;;;;41.97;21.38;;;16.20;70.80;;;;;;5053492;28;20021;-68
2021/10/08 07:19:54;;;;;;;36.58;20.02;;;16.20;70.90;;;;;;5054045;28;20358;-68
2021/10/08 07:22:20;;;;;;;42.58;21.17;;;16.20;70.90;;;;;;5060550;28;20017;-68
2021/10/08 07:24:48;;;;;;;38.95;19.98;;;16.30;70.80;;;;;;5053367;28;20420;-68
2021/10/08 07:27:15;;;;;;;40.80;22.35;;;16.30;70.70;;;;;;5055212;28;20020;-68
2021/10/08 07:29:41;;;;;;;39.25;22.13;;;16.30;70.50;;;;;;5067069;28;20035;-68
2021/10/08 07:32:07;;;;;;;41.58;24.23;;;16.30;70.30;;;;;;5072253;28;20025;-68
2021/10/08 07:34:33;;;;;;;37.38;21.40;;;16.40;70.10;;;;;;5073056;28;20482;-69
2021/10/08 07:36:59;;;;;;;32.22;19.70;;;16.40;69.60;;;;;;5073057;28;20116;-69
2021/10/08 07:39:25;;;;;;;39.13;22.73;;;16.50;69.90;;;;;;5073068;28;20059;-69
2021/10/08 07:41:52;;;;;;;35.65;20.75;;;16.50;69.50;;;;;;5073021;28;20102;-68
2021/10/08 07:44:18;;;;;;;38.58;22.40;;;16.50;69.30;;;;;;5072812;28;20035;-68
2021/10/08 07:46:44;;;;;;;34.47;21.55;;;16.50;69.10;;;;;;5072918;28;20119;-68
2021/10/08 07:49:09;;;;;;;34.80;21.23;;;16.50;69.20;;;;;;5072807;28;20035;-68
2021/10/08 07:51:35;;;;;;;36.38;22.00;;;16.50;69.10;;;;;;5073005;28;20013;-69
2021/10/08 07:54:03;;;;;;;34.22;19.73;;;16.50;69.40;;;;;;5072983;28;20497;-68
2021/10/08 07:56:28;;;;;;;34.42;20.55;;;16.60;69.80;;;;;;5072793;28;20123;-68
2021/10/08 07:58:54;;;;;;;35.30;20.98;;;16.70;70.00;;;;;;5073044;28;20600;-69
2021/10/08 08:01:20;;;;;;;31.20;20.02;;;16.70;69.80;;;;;;5073201;28;20029;-69
2021/10/08 08:03:46;;;;;;;30.55;20.42;;;16.70;69.70;;;;;;5071335;28;20048;-69
2021/10/08 08:06:12;;;;;;;31.40;19.05;;;16.80;69.40;;;;;;5072854;28;20031;-69
2021/10/08 08:08:38;;;;;;;34.30;21.48;;;16.80;69.80;;;;;;5069126;28;20024;-69
2021/10/08 08:11:04;;;;;;;31.33;21.05;;;16.90;69.20;;;;;;5061930;28;20028;-69
2021/10/08 08:13:29;;;;;;;29.10;19.90;;;16.90;68.70;;;;;;5072431;28;20147;-69
2021/10/08 08:15:55;;;;;;;31.20;19.30;;;16.90;68.70;;;;;;5067838;28;20034;-69
2021/10/08 08:18:21;;;;;;;40.40;20.55;;;17.00;68.90;;;;;;5071592;28;20028;-69
2021/10/08 08:20:47;;;;;;;29.73;20.02;;;17.00;69.20;;;;;;5064936;28;20021;-69
2021/10/08 08:23:13;;;;;;;31.55;20.95;;;17.20;69.70;;;;;;5072048;28;20028;-70
2021/10/08 08:25:39;;;;;;;31.73;20.88;;;17.30;69.90;;;;;;5076329;28;20032;-70
2021/10/08 08:28:05;;;;;;;33.33;21.40;;;17.40;70.20;;;;;;5076650;28;20547;-69
2021/10/08 08:30:36;;;;;;;29.92;18.80;;;17.50;69.70;;;;;;5076534;28;20024;-70
2021/10/08 08:33:02;;;;;;;26.35;17.80;;;17.70;69.80;;;;;;5069221;28;20053;-70
2021/10/08 08:35:27;;;;;;;33.95;19.58;;;17.90;69.50;;;;;;5061496;28;20532;-69
2021/10/08 08:37:53;;;;;;;27.10;18.52;;;18.00;68.50;;;;;;5056606;28;20107;-69
2021/10/08 08:40:19;;;;;;;26.25;18.85;;;18.10;69.20;;;;;;5075132;28;20486;-69
2021/10/08 08:42:45;;;;;;;33.33;21.67;;;18.20;68.50;;;;;;5059950;28;20025;-70
2021/10/08 08:45:11;;;;;;;29.02;19.75;;;18.40;65.80;;;;;;5068990;28;20052;-69
2021/10/08 08:47:37;;;;;;;29.10;19.60;;;18.40;64.80;;;;;;5062582;28;20032;-70
2021/10/08 08:50:04;;;;;;;30.30;19.70;;;18.40;63.70;;;;;;5057517;28;20020;-69
2021/10/08 08:52:30;;;;;;;26.73;19.15;;;18.50;63.80;;;;;;5075418;28;20071;-69
2021/10/08 08:54:56;;;;;;;26.92;18.77;;;18.50;63.50;;;;;;5061798;28;20422;-69
2021/10/08 08:57:26;;;;;;;26.98;18.50;;;18.50;63.80;;;;;;5056468;28;20033;-70
2021/10/08 09:00:16;;;;;;;25.83;17.45;;;18.50;64.00;;;;;;5055081;28;20062;-69
2021/10/08 09:02:57;;;;;;;25.25;16.63;;;18.60;64.90;;;;;;5054892;28;20498;-69
2021/10/08 09:05:31;;;;;;;25.10;17.10;;;18.70;65.70;;;;;;5055416;28;20540;-69
2021/10/08 09:08:05;;;;;;;26.75;17.63;;;18.70;64.50;;;;;;5058380;28;20023;-69
2021/10/08 09:10:36;;;;;;;25.40;15.90;;;18.80;65.10;;;;;;5074000;28;20032;-69
2021/10/08 09:13:07;;;;;;;22.13;15.77;;;18.80;64.80;;;;;;5067256;28;20075;-69
2021/10/08 09:15:55;;;;;;;23.40;16.02;;;18.80;65.00;;;;;;5055241;28;20441;-67
2021/10/08 09:18:30;;;;;;;34.83;15.95;;;18.80;65.10;;;;;;5063977;28;20025;-67
2021/10/08 09:21:16;;;;;;;68.80;15.95;;;18.90;64.70;;;;;;5065261;28;20028;-66
2021/10/08 09:23:47;;;;;;;41.35;20.25;;;18.90;64.60;;;;;;5073332;28;20028;-66
2021/10/08 09:26:25;;;;;;;52.28;22.80;;;19.00;63.90;;;;;;5056304;28;20398;-67
2021/10/08 09:29:00;;;;;;;49.13;23.30;;;19.00;64.20;;;;;;5055552;28;20052;-67
2021/10/08 09:31:46;;;;;;;36.90;23.02;;;19.00;64.70;;;;;;5054585;28;20101;-67
2021/10/08 09:34:23;;;;;;;47.25;24.73;;;19.10;63.90;;;;;;5055125;28;20052;-66
2021/10/08 09:37:01;;;;;;;39.83;23.27;;;19.10;63.40;;;;;;5055587;28;20033;-66
2021/10/08 09:39:32;;;;;;;55.75;25.23;;;19.20;63.80;;;;;;5055470;28;20044;-66
2021/10/08 09:42:08;;;;;;;44.75;25.38;;;19.20;63.60;;;;;;5055395;28;20382;-67
2021/10/08 09:44:43;;;;;;;54.03;25.55;;;19.30;61.80;;;;;;5055118;28;20027;-66
2021/10/08 09:47:15;;;;;;;42.50;22.55;;;19.30;61.50;;;;;;5055389;28;20025;-66
2021/10/08 09:49:42;;;;;;;52.15;26.00;;;19.30;61.40;;;;;;5055346;28;20013;-66
2021/10/08 09:52:28;;;;;;;40.00;23.95;;;19.40;61.30;;;;;;5055278;28;20100;-67
2021/10/08 09:55:04;;;;;;;32.70;20.92;;;19.40;61.30;;;;;;5055028;28;20048;-66
2021/10/08 09:57:59;;;;;;;31.25;19.83;;;19.50;60.90;;;;;;5053774;28;20028;-67
2021/10/08 10:00:38;;;;;;;29.65;18.73;;;19.50;60.90;;;;;;5054908;28;20116;-66
2021/10/08 10:03:07;;;;;;;23.15;17.63;;;19.60;61.00;;;;;;5054431;28;20128;-67
2021/10/08 10:05:33;;;;;;;28.73;18.10;;;19.60;61.50;;;;;;5054626;28;20438;-67
2021/10/08 10:07:59;;;;;;;27.73;16.60;;;19.70;61.10;;;;;;5054725;28;20100;-66
2021/10/08 10:10:26;;;;;;;29.23;15.82;;;19.70;59.50;;;;;;5054709;28;20107;-66
2021/10/08 10:12:52;;;;;;;24.20;16.02;;;19.70;59.40;;;;;;5054771;28;20029;-66
2021/10/08 10:15:19;;;;;;;23.77;15.50;;;19.80;59.70;;;;;;5054696;28;20482;-66
2021/10/08 10:17:46;;;;;;;22.65;15.52;;;19.80;59.10;;;;;;5054593;28;20029;-67
2021/10/08 10:20:13;;;;;;;25.77;15.57;;;19.90;58.80;;;;;;5054762;28;20028;-67
2021/10/08 10:22:40;;;;;;;22.90;16.27;;;19.90;58.80;;;;;;5054584;28;20263;-67
2021/10/08 10:25:07;;;;;;;22.77;15.07;;;19.90;58.60;;;;;;5054496;28;20433;-67
2021/10/08 10:27:33;;;;;;;24.60;15.18;;;19.90;58.10;;;;;;5054591;28;20508;-67
2021/10/08 10:30:00;;;;;;;26.70;15.23;;;19.90;57.50;;;;;;5054534;28;20108;-67
2021/10/08 10:32:27;;;;;;;25.50;13.65;;;19.90;57.20;;;;;;5054372;28;20031;-67
2021/10/08 10:34:53;;;;;;;19.02;12.65;;;19.90;57.60;;;;;;5054404;28;20447;-66
2021/10/08 10:37:41;;;;;;;28.08;14.75;;;19.90;57.20;;;;;;5054336;28;20029;-66
2021/10/08 10:40:27;;;;;;;19.38;13.95;;;19.90;56.70;;;;;;5052946;28;20017;-67
2021/10/08 10:43:29;;;;;;;23.88;14.02;;;20.00;57.30;;;;;;5053725;28;20037;-67
2021/10/08 10:46:18;;;;;;;24.63;14.95;;;20.10;58.40;;;;;;5054108;28;20095;-67
2021/10/08 10:48:46;;;;;;;20.17;13.55;;;20.20;58.00;;;;;;5053477;28;20056;-67
2021/10/08 10:51:19;;;;;;;20.38;13.05;;;20.30;58.40;;;;;;5053895;28;20012;-67
2021/10/08 10:53:53;;;;;;;19.73;13.18;;;20.30;57.70;;;;;;5054134;28;20477;-66
2021/10/08 10:56:43;;;;;;;23.08;15.20;;;20.30;57.30;;;;;;5054020;28;20395;-67
2021/10/08 10:59:28;;;;;;;22.13;14.15;;;20.40;58.10;;;;;;5054026;28;20433;-67
2021/10/08 11:02:06;;;;;;;24.98;15.25;;;20.40;58.00;;;;;;5053947;28;20452;-66
2021/10/08 11:04:33;;;;;;;22.58;15.90;;;20.40;57.50;;;;;;5053623;28;20044;-66
2021/10/08 11:07:04;;;;;;;20.58;13.88;;;20.40;56.10;;;;;;5053764;28;20378;-66
2021/10/08 11:09:31;;;;;;;22.38;14.60;;;20.40;56.30;;;;;;5053640;28;20022;-67
2021/10/08 11:12:35;;;;;;;23.17;13.95;;;20.40;54.80;;;;;;5053628;28;20053;-66
2021/10/08 11:15:16;;;;;;;21.33;13.73;;;20.30;55.10;;;;;;5053627;28;20024;-67
2021/10/08 11:17:59;;;;;;;20.33;13.27;;;20.20;55.60;;;;;;5053625;28;20383;-66
2021/10/08 11:20:25;;;;;;;24.40;13.52;;;20.20;55.80;;;;;;5053540;28;20025;-66
2021/10/08 11:22:52;;;;;;;17.05;12.15;;;20.10;56.10;;;;;;5053302;28;20089;-66
2021/10/08 11:25:18;;;;;;;18.00;12.88;;;20.00;55.70;;;;;;5053336;28;20025;-67
2021/10/08 11:27:49;;;;;;;20.15;12.85;;;20.00;56.40;;;;;;5053492;28;20478;-66
2021/10/08 11:30:15;;;;;;;19.77;12.25;;;20.00;56.20;;;;;;5053436;28;20025;-66
2021/10/08 11:32:46;;;;;;;19.45;11.70;;;20.00;57.00;;;;;;5053328;28;20060;-66
2021/10/08 11:35:18;;;;;;;23.08;13.45;;;20.10;56.90;;;;;;5053046;28;20390;-66
2021/10/08 11:37:48;;;;;;;16.63;11.68;;;20.10;56.20;;;;;;5051977;28;20056;-66
2021/10/08 11:40:31;;;;;;;20.40;12.05;;;20.10;57.50;;;;;;5053150;28;20033;-66
2021/10/08 11:43:01;;;;;;;23.38;13.05;;;20.10;57.00;;;;;;5053194;28;20029;-66
2021/10/08 11:45:49;;;;;;;16.98;11.00;;;20.10;56.50;;;;;;5051746;28;20017;-67
2021/10/08 11:48:28;;;;;;;23.50;10.70;;;20.10;55.50;;;;;;5053007;28;20049;-66
2021/10/08 11:51:03;;;;;;;18.50;11.38;;;20.10;55.70;;;;;;5053050;28;20021;-66
2021/10/08 11:53:48;;;;;;;16.63;10.25;;;20.10;56.20;;;;;;5052516;28;20033;-66
2021/10/08 11:56:24;;;;;;;21.10;11.75;;;20.20;56.40;;;;;;5052744;28;20486;-66
2021/10/08 11:58:51;;;;;;;16.83;11.10;;;20.20;55.00;;;;;;5053178;28;20421;-66
2021/10/08 12:01:27;;;;;;;15.57;10.95;;;20.20;55.80;;;;;;5052950;28;20490;-67
2021/10/08 12:03:53;;;;;;;18.88;11.07;;;20.20;55.50;;;;;;5052552;28;20057;-66
2021/10/08 12:06:28;;;;;;;18.20;11.32;;;20.20;55.70;;;;;;5052882;28;20029;-67
2021/10/08 12:08:55;;;;;;;18.63;11.27;;;20.20;55.90;;;;;;5052706;28;20040;-67
2021/10/08 12:11:21;;;;;;;17.77;11.70;;;20.20;56.00;;;;;;5052756;28;20032;-66
2021/10/08 12:13:51;;;;;;;19.20;12.75;;;20.20;57.00;;;;;;5052657;28;20021;-67
2021/10/08 12:16:19;;;;;;;19.17;12.13;;;20.20;55.70;;;;;;5052905;28;20032;-67
2021/10/08 12:18:59;;;;;;;22.20;12.25;;;20.20;56.30;;;;;;5052471;28;20021;-66
2021/10/08 12:21:38;;;;;;;25.67;13.18;;;20.30;55.60;;;;;;5052535;28;20032;-67
2021/10/08 12:24:06;;;;;;;22.73;13.57;;;20.30;55.90;;;;;;5052392;28;20025;-67
2021/10/08 12:26:35;;;;;;;15.77;11.45;;;20.30;55.80;;;;;;5052563;28;20048;-67
2021/10/08 12:29:12;;;;;;;20.17;12.15;;;20.30;55.80;;;;;;5052494;28;20013;-67
2021/10/08 12:32:08;;;;;;;18.60;12.80;;;20.40;56.50;;;;;;5052652;28;20021;-67
2021/10/08 12:34:42;;;;;;;21.65;11.88;;;20.50;55.40;;;;;;5052209;28;20045;-67
2021/10/08 12:37:11;;;;;;;18.45;11.73;;;20.60;56.30;;;;;;5052212;28;20033;-67